Aviation Digital Data Service (ADDS)

Output produced by METARs form (0824 UTC 29 September 2016)
found at http://www.aviationweather.gov/adds/metars/
 
KPHL 290520Z 2906/3012 06011G20KT 6SM BR OVC010 
     TEMPO 2907/2911 3SM -SHRA BR OVC007 
     FM291500 06014G24KT 6SM BR OVC010 
     FM291800 07015G25KT P6SM OVC020 
     FM300000 07012G23KT 5SM -SHRA OVC008